sensor_id;sensor_type;location;lat;lon;timestamp;pressure;altitude;pressure_sealevel;temperature;humidity
16331;BME280;8275;48.206;16.340;2023-04-22T00:02:03;99005.16;;;16.61;35.94
16331;BME280;8275;48.206;16.340;2023-04-22T00:04:33;99004.66;;;16.59;35.95
16331;BME280;8275;48.206;16.340;2023-04-22T00:07:02;99001.38;;;16.57;36.03
16331;BME280;8275;48.206;16.340;2023-04-22T00:09:30;99009.94;;;16.56;36.08
16331;BME280;8275;48.206;16.340;2023-04-22T00:11:58;99005.84;;;16.53;36.05
16331;BME280;8275;48.206;16.340;2023-04-22T00:14:28;99004.50;;;16.51;36.25
16331;BME280;8275;48.206;16.340;2023-04-22T00:16:57;99015.00;;;16.49;36.24
16331;BME280;8275;48.206;16.340;2023-04-22T00:19:27;99009.78;;;16.47;36.26
16331;BME280;8275;48.206;16.340;2023-04-22T00:21:56;99007.63;;;16.44;36.32
16331;BME280;8275;48.206;16.340;2023-04-22T00:24:24;99017.31;;;16.42;36.44
16331;BME280;8275;48.206;16.340;2023-04-22T00:26:53;99010.19;;;16.41;36.77
16331;BME280;8275;48.206;16.340;2023-04-22T00:29:21;99011.59;;;16.38;36.58
16331;BME280;8275;48.206;16.340;2023-04-22T00:31:50;99004.72;;;16.36;36.55
16331;BME280;8275;48.206;16.340;2023-04-22T00:34:18;99009.72;;;16.34;36.68
16331;BME280;8275;48.206;16.340;2023-04-22T00:36:48;99005.63;;;16.31;37.10
16331;BME280;8275;48.206;16.340;2023-04-22T00:39:17;99004.28;;;16.29;36.90
16331;BME280;8275;48.206;16.340;2023-04-22T00:41:45;99002.94;;;16.26;36.95
16331;BME280;8275;48.206;16.340;2023-04-22T00:44:14;99001.59;;;16.24;36.85
16331;BME280;8275;48.206;16.340;2023-04-22T00:46:42;98996.69;;;16.21;37.02
16331;BME280;8275;48.206;16.340;2023-04-22T00:49:12;99002.47;;;16.19;37.16
16331;BME280;8275;48.206;16.340;2023-04-22T00:51:40;98999.19;;;16.17;37.06
16331;BME280;8275;48.206;16.340;2023-04-22T00:54:10;98997.84;;;16.14;37.25
16331;BME280;8275;48.206;16.340;2023-04-22T00:56:39;98999.56;;;16.10;37.57
16331;BME280;8275;48.206;16.340;2023-04-22T00:59:08;98991.88;;;16.07;37.50
16331;BME280;8275;48.206;16.340;2023-04-22T01:01:37;98994.13;;;16.05;37.32
16331;BME280;8275;48.206;16.340;2023-04-22T01:04:05;98999.97;;;16.04;37.48
16331;BME280;8275;48.206;16.340;2023-04-22T01:06:35;99000.22;;;16.02;37.51
16331;BME280;8275;48.206;16.340;2023-04-22T01:09:04;98990.63;;;16.00;37.86
16331;BME280;8275;48.206;16.340;2023-04-22T01:11:34;98991.22;;;15.97;37.58
16331;BME280;8275;48.206;16.340;2023-04-22T01:14:03;98997.06;;;15.95;37.54
16331;BME280;8275;48.206;16.340;2023-04-22T01:16:32;99000.09;;;15.94;37.62
16331;BME280;8275;48.206;16.340;2023-04-22T01:19:01;98990.44;;;15.91;37.53
16331;BME280;8275;48.206;16.340;2023-04-22T01:21:30;99007.34;;;15.90;37.70
16331;BME280;8275;48.206;16.340;2023-04-22T01:24:01;99002.41;;;15.87;37.74
16331;BME280;8275;48.206;16.340;2023-04-22T01:26:30;98991.66;;;15.85;37.33
16331;BME280;8275;48.206;16.340;2023-04-22T01:29:01;98984.78;;;15.83;37.89
16331;BME280;8275;48.206;16.340;2023-04-22T01:31:29;98996.13;;;15.81;37.90
16331;BME280;8275;48.206;16.340;2023-04-22T01:33:58;99001.41;;;15.78;37.78
16331;BME280;8275;48.206;16.340;2023-04-22T01:36:26;98992.59;;;15.76;38.03
16331;BME280;8275;48.206;16.340;2023-04-22T01:38:55;98993.72;;;15.75;37.72
16331;BME280;8275;48.206;16.340;2023-04-22T01:41:25;98997.91;;;15.72;38.02
16331;BME280;8275;48.206;16.340;2023-04-22T01:43:54;98995.44;;;15.71;37.92
16331;BME280;8275;48.206;16.340;2023-04-22T01:46:24;98997.66;;;15.69;37.94
16331;BME280;8275;48.206;16.340;2023-04-22T01:48:53;98990.78;;;15.66;38.07
16331;BME280;8275;48.206;16.340;2023-04-22T01:51:22;98992.72;;;15.66;38.33
16331;BME280;8275;48.206;16.340;2023-04-22T01:53:50;98987.00;;;15.62;38.34
16331;BME280;8275;48.206;16.340;2023-04-22T01:56:19;98988.09;;;15.61;38.46
16331;BME280;8275;48.206;16.340;2023-04-22T01:58:49;98995.03;;;15.59;38.35
16331;BME280;8275;48.206;16.340;2023-04-22T02:01:17;98994.22;;;15.58;38.44
16331;BME280;8275;48.206;16.340;2023-04-22T02:03:45;98997.28;;;15.57;38.39
16331;BME280;8275;48.206;16.340;2023-04-22T02:06:14;98992.06;;;15.55;38.43
16331;BME280;8275;48.206;16.340;2023-04-22T02:08:42;98997.88;;;15.54;38.75
16331;BME280;8275;48.206;16.340;2023-04-22T02:11:11;98981.91;;;15.51;38.71
16331;BME280;8275;48.206;16.340;2023-04-22T02:13:40;98986.91;;;15.49;38.69
16331;BME280;8275;48.206;16.340;2023-04-22T02:16:09;98987.19;;;15.47;38.98
16331;BME280;8275;48.206;16.340;2023-04-22T02:18:38;98987.47;;;15.45;38.90
16331;BME280;8275;48.206;16.340;2023-04-22T02:21:06;98993.31;;;15.44;39.04
16331;BME280;8275;48.206;16.340;2023-04-22T02:23:35;98983.63;;;15.41;39.10
16331;BME280;8275;48.206;16.340;2023-04-22T02:26:04;98982.81;;;15.41;39.56
16331;BME280;8275;48.206;16.340;2023-04-22T02:28:33;98981.44;;;15.38;39.35
16331;BME280;8275;48.206;16.340;2023-04-22T02:31:01;98980.94;;;15.36;39.41
16331;BME280;8275;48.206;16.340;2023-04-22T02:33:31;98972.13;;;15.34;39.57
16331;BME280;8275;48.206;16.340;2023-04-22T02:35:59;98985.41;;;15.32;39.31
16331;BME280;8275;48.206;16.340;2023-04-22T02:38:28;98978.22;;;15.31;39.51
16331;BME280;8275;48.206;16.340;2023-04-22T02:40:56;98977.19;;;15.27;39.44
16331;BME280;8275;48.206;16.340;2023-04-22T02:43:24;98981.03;;;15.26;39.70
16331;BME280;8275;48.206;16.340;2023-04-22T02:45:53;98977.75;;;15.24;39.62
16331;BME280;8275;48.206;16.340;2023-04-22T02:48:21;98989.41;;;15.21;39.81
16331;BME280;8275;48.206;16.340;2023-04-22T02:50:51;98988.03;;;15.19;39.71
16331;BME280;8275;48.206;16.340;2023-04-22T02:53:19;98985.88;;;15.16;39.73
16331;BME280;8275;48.206;16.340;2023-04-22T02:55:47;98991.16;;;15.12;39.81
16331;BME280;8275;48.206;16.340;2023-04-22T02:58:18;98983.47;;;15.09;39.75
16331;BME280;8275;48.206;16.340;2023-04-22T03:00:46;98990.38;;;15.07;39.94
16331;BME280;8275;48.206;16.340;2023-04-22T03:03:15;98993.72;;;15.04;39.89
16331;BME280;8275;48.206;16.340;2023-04-22T03:05:43;98991.56;;;15.01;40.12
16331;BME280;8275;48.206;16.340;2023-04-22T03:08:13;98988.28;;;14.99;40.08
16331;BME280;8275;48.206;16.340;2023-04-22T03:10:42;98999.88;;;14.96;40.04
16331;BME280;8275;48.206;16.340;2023-04-22T03:13:11;98990.25;;;14.93;39.93
16331;BME280;8275;48.206;16.340;2023-04-22T03:15:40;98986.97;;;14.91;40.12
16331;BME280;8275;48.206;16.340;2023-04-22T03:18:08;98996.34;;;14.90;40.19
16331;BME280;8275;48.206;16.340;2023-04-22T03:20:37;98992.22;;;14.88;40.21
16331;BME280;8275;48.206;16.340;2023-04-22T03:23:06;98988.09;;;14.85;40.26
16331;BME280;8275;48.206;16.340;2023-04-22T03:25:36;98987.56;;;14.83;40.39
16331;BME280;8275;48.206;16.340;2023-04-22T03:28:04;98993.69;;;14.80;40.33
16331;BME280;8275;48.206;16.340;2023-04-22T03:30:33;98989.59;;;14.77;40.50
16331;BME280;8275;48.206;16.340;2023-04-22T03:33:01;98993.44;;;14.76;40.49
16331;BME280;8275;48.206;16.340;2023-04-22T03:35:29;98990.16;;;14.74;40.59
16331;BME280;8275;48.206;16.340;2023-04-22T03:37:58;98994.00;;;14.73;40.62
16331;BME280;8275;48.206;16.340;2023-04-22T03:40:26;98999.81;;;14.72;40.94
16331;BME280;8275;48.206;16.340;2023-04-22T03:42:56;99000.41;;;14.69;40.94
16331;BME280;8275;48.206;16.340;2023-04-22T03:45:25;99000.69;;;14.67;40.93
16331;BME280;8275;48.206;16.340;2023-04-22T03:47:53;99001.81;;;14.66;41.02
16331;BME280;8275;48.206;16.340;2023-04-22T03:50:22;98997.41;;;14.65;40.93
16331;BME280;8275;48.206;16.340;2023-04-22T03:52:51;99002.09;;;14.65;41.09
16331;BME280;8275;48.206;16.340;2023-04-22T03:55:19;99001.56;;;14.63;41.03
16331;BME280;8275;48.206;16.340;2023-04-22T03:57:47;99006.78;;;14.64;41.20
16331;BME280;8275;48.206;16.340;2023-04-22T04:00:17;98997.72;;;14.64;41.32
16331;BME280;8275;48.206;16.340;2023-04-22T04:02:46;98993.28;;;14.63;41.31
16331;BME280;8275;48.206;16.340;2023-04-22T04:05:14;98993.00;;;14.64;41.24
16331;BME280;8275;48.206;16.340;2023-04-22T04:07:43;98989.13;;;14.65;41.37
16331;BME280;8275;48.206;16.340;2023-04-22T04:10:11;98995.47;;;14.66;41.40
16331;BME280;8275;48.206;16.340;2023-04-22T04:12:40;98993.56;;;14.66;41.28
16331;BME280;8275;48.206;16.340;2023-04-22T04:15:09;99000.69;;;14.67;41.57
16331;BME280;8275;48.206;16.340;2023-04-22T04:17:39;98998.75;;;14.68;41.37
16331;BME280;8275;48.206;16.340;2023-04-22T04:20:08;98996.84;;;14.68;41.61
16331;BME280;8275;48.206;16.340;2023-04-22T04:22:37;99000.97;;;14.71;41.56
16331;BME280;8275;48.206;16.340;2023-04-22T04:25:06;98995.97;;;14.73;41.55
16331;BME280;8275;48.206;16.340;2023-04-22T04:27:36;98998.44;;;14.74;41.67
16331;BME280;8275;48.206;16.340;2023-04-22T04:30:08;98998.94;;;14.76;41.58
16331;BME280;8275;48.206;16.340;2023-04-22T04:32:39;99001.13;;;14.80;41.62
16331;BME280;8275;48.206;16.340;2023-04-22T04:35:09;99000.28;;;14.84;41.63
16331;BME280;8275;48.206;16.340;2023-04-22T04:37:39;99004.09;;;14.88;41.80
16331;BME280;8275;48.206;16.340;2023-04-22T04:40:09;99004.03;;;14.93;41.77
16331;BME280;8275;48.206;16.340;2023-04-22T04:42:39;98999.56;;;14.97;41.42
16331;BME280;8275;48.206;16.340;2023-04-22T04:45:09;99002.59;;;15.01;41.41
16331;BME280;8275;48.206;16.340;2023-04-22T04:47:39;99006.94;;;15.07;41.62
16331;BME280;8275;48.206;16.340;2023-04-22T04:50:08;99013.50;;;15.11;41.65
16331;BME280;8275;48.206;16.340;2023-04-22T04:52:37;99009.59;;;15.17;41.63
16331;BME280;8275;48.206;16.340;2023-04-22T04:55:07;99010.66;;;15.21;41.62
16331;BME280;8275;48.206;16.340;2023-04-22T04:57:35;99002.00;;;15.27;41.56
16331;BME280;8275;48.206;16.340;2023-04-22T05:00:06;99007.47;;;15.32;41.79
16331;BME280;8275;48.206;16.340;2023-04-22T05:02:35;99011.81;;;15.38;41.55
16331;BME280;8275;48.206;16.340;2023-04-22T05:05:06;99014.53;;;15.43;41.63
16331;BME280;8275;48.206;16.340;2023-04-22T05:07:35;99015.03;;;15.51;41.60
16331;BME280;8275;48.206;16.340;2023-04-22T05:10:04;99013.56;;;15.58;41.51
16331;BME280;8275;48.206;16.340;2023-04-22T05:12:33;99015.66;;;15.66;41.54
16331;BME280;8275;48.206;16.340;2023-04-22T05:15:02;99012.53;;;15.73;41.53
16331;BME280;8275;48.206;16.340;2023-04-22T05:17:31;99009.13;;;15.81;41.57
16331;BME280;8275;48.206;16.340;2023-04-22T05:19:59;99019.22;;;15.90;41.58
16331;BME280;8275;48.206;16.340;2023-04-22T05:22:29;99007.78;;;15.97;41.45
16331;BME280;8275;48.206;16.340;2023-04-22T05:24:57;99007.09;;;16.05;41.37
16331;BME280;8275;48.206;16.340;2023-04-22T05:27:25;99006.75;;;16.11;41.50
16331;BME280;8275;48.206;16.340;2023-04-22T05:29:54;99009.16;;;16.18;41.30
16331;BME280;8275;48.206;16.340;2023-04-22T05:32:22;99011.22;;;16.26;41.26
16331;BME280;8275;48.206;16.340;2023-04-22T05:34:51;99006.91;;;16.39;41.30
16331;BME280;8275;48.206;16.340;2023-04-22T05:37:19;99006.00;;;16.62;41.09
16331;BME280;8275;48.206;16.340;2023-04-22T05:39:49;99013.78;;;16.92;40.75
16331;BME280;8275;48.206;16.340;2023-04-22T05:42:17;99005.19;;;17.21;40.32
16331;BME280;8275;48.206;16.340;2023-04-22T05:44:46;99011.88;;;17.33;40.18
16331;BME280;8275;48.206;16.340;2023-04-22T05:47:14;99006.63;;;17.45;40.21
16331;BME280;8275;48.206;16.340;2023-04-22T05:49:42;99016.72;;;17.69;39.99
16331;BME280;8275;48.206;16.340;2023-04-22T05:52:11;99017.72;;;18.00;39.71
16331;BME280;8275;48.206;16.340;2023-04-22T05:54:40;99013.38;;;18.21;39.40
16331;BME280;8275;48.206;16.340;2023-04-22T05:57:09;99016.50;;;18.28;39.14
16331;BME280;8275;48.206;16.340;2023-04-22T05:59:38;99021.13;;;18.33;39.16
16331;BME280;8275;48.206;16.340;2023-04-22T06:02:07;99021.66;;;18.35;39.14
16331;BME280;8275;48.206;16.340;2023-04-22T06:04:35;99024.59;;;18.38;39.14
16331;BME280;8275;48.206;16.340;2023-04-22T06:07:04;99021.50;;;18.40;38.98
16331;BME280;8275;48.206;16.340;2023-04-22T06:09:33;99022.84;;;18.42;38.89
16331;BME280;8275;48.206;16.340;2023-04-22T06:12:01;99022.25;;;18.45;38.73
16331;BME280;8275;48.206;16.340;2023-04-22T06:14:31;99017.72;;;18.49;38.72
16331;BME280;8275;48.206;16.340;2023-04-22T06:16:59;99027.56;;;18.55;38.60
16331;BME280;8275;48.206;16.340;2023-04-22T06:19:27;99026.81;;;18.63;38.46
16331;BME280;8275;48.206;16.340;2023-04-22T06:21:56;99018.69;;;18.67;38.26
16331;BME280;8275;48.206;16.340;2023-04-22T06:24:24;99021.00;;;18.73;38.15
16331;BME280;8275;48.206;16.340;2023-04-22T06:26:53;99024.47;;;18.79;38.04
16331;BME280;8275;48.206;16.340;2023-04-22T06:29:21;99020.31;;;18.90;37.76
16331;BME280;8275;48.206;16.340;2023-04-22T06:31:51;99012.31;;;18.97;37.49
16331;BME280;8275;48.206;16.340;2023-04-22T06:34:20;99021.03;;;19.04;37.45
16331;BME280;8275;48.206;16.340;2023-04-22T06:36:49;99025.50;;;19.14;37.46
16331;BME280;8275;48.206;16.340;2023-04-22T06:39:19;99012.31;;;19.19;37.52
16331;BME280;8275;48.206;16.340;2023-04-22T06:41:47;99017.72;;;19.24;37.20
16331;BME280;8275;48.206;16.340;2023-04-22T06:44:16;99020.53;;;19.33;37.06
16331;BME280;8275;48.206;16.340;2023-04-22T06:46:44;99011.50;;;19.49;36.90
16331;BME280;8275;48.206;16.340;2023-04-22T06:49:14;99016.47;;;19.61;36.42
16331;BME280;8275;48.206;16.340;2023-04-22T06:51:42;99016.63;;;19.73;36.27
16331;BME280;8275;48.206;16.340;2023-04-22T06:54:10;99017.50;;;19.82;36.18
16331;BME280;8275;48.206;16.340;2023-04-22T06:56:39;99015.03;;;19.89;35.81
16331;BME280;8275;48.206;16.340;2023-04-22T06:59:07;99019.00;;;19.97;35.83
16331;BME280;8275;48.206;16.340;2023-04-22T07:01:36;99019.19;;;20.09;35.40
16331;BME280;8275;48.206;16.340;2023-04-22T07:04:04;99019.69;;;20.19;35.40
16331;BME280;8275;48.206;16.340;2023-04-22T07:06:34;99020.88;;;20.27;34.89
16331;BME280;8275;48.206;16.340;2023-04-22T07:09:02;99018.94;;;20.36;34.71
16331;BME280;8275;48.206;16.340;2023-04-22T07:11:31;99007.78;;;20.45;34.75
16331;BME280;8275;48.206;16.340;2023-04-22T07:14:00;99001.91;;;20.55;34.63
16331;BME280;8275;48.206;16.340;2023-04-22T07:16:28;99004.53;;;20.60;34.36
16331;BME280;8275;48.206;16.340;2023-04-22T07:18:56;98999.28;;;20.67;34.49
16331;BME280;8275;48.206;16.340;2023-04-22T07:21:25;99010.06;;;20.77;33.95
16331;BME280;8275;48.206;16.340;2023-04-22T07:23:55;99005.81;;;20.88;34.25
16331;BME280;8275;48.206;16.340;2023-04-22T07:26:24;98998.59;;;21.04;33.84
16331;BME280;8275;48.206;16.340;2023-04-22T07:28:52;99001.69;;;21.20;33.57
16331;BME280;8275;48.206;16.340;2023-04-22T07:31:21;99004.72;;;21.35;33.36
16331;BME280;8275;48.206;16.340;2023-04-22T07:33:49;98996.97;;;21.49;33.20
16331;BME280;8275;48.206;16.340;2023-04-22T07:36:17;98995.44;;;21.60;33.14
16331;BME280;8275;48.206;16.340;2023-04-22T07:38:46;98998.34;;;21.73;32.98
16331;BME280;8275;48.206;16.340;2023-04-22T07:41:16;98992.91;;;21.85;32.81
16331;BME280;8275;48.206;16.340;2023-04-22T07:43:44;98993.44;;;21.99;32.51
16331;BME280;8275;48.206;16.340;2023-04-22T07:46:12;98990.06;;;22.14;32.60
16331;BME280;8275;48.206;16.340;2023-04-22T07:48:41;98991.78;;;22.27;32.44
16331;BME280;8275;48.206;16.340;2023-04-22T07:51:09;98990.56;;;22.36;32.13
16331;BME280;8275;48.206;16.340;2023-04-22T07:53:38;98992.13;;;22.46;32.30
16331;BME280;8275;48.206;16.340;2023-04-22T07:56:06;98993.41;;;22.49;32.07
16331;BME280;8275;48.206;16.340;2023-04-22T07:58:36;98990.44;;;22.54;32.13
16331;BME280;8275;48.206;16.340;2023-04-22T08:01:04;98995.28;;;22.65;31.95
16331;BME280;8275;48.206;16.340;2023-04-22T08:03:33;98990.56;;;22.78;32.12
16331;BME280;8275;48.206;16.340;2023-04-22T08:06:02;98993.41;;;22.90;31.74
16331;BME280;8275;48.206;16.340;2023-04-22T08:08:30;98990.66;;;23.02;31.38
16331;BME280;8275;48.206;16.340;2023-04-22T08:10:58;98993.19;;;23.07;31.22
16331;BME280;8275;48.206;16.340;2023-04-22T08:13:27;98986.25;;;23.13;31.11
16331;BME280;8275;48.206;16.340;2023-04-22T08:15:58;98991.63;;;23.18;31.25
16331;BME280;8275;48.206;16.340;2023-04-22T08:18:28;98981.50;;;23.26;31.31
16331;BME280;8275;48.206;16.340;2023-04-22T08:20:57;98974.84;;;23.30;31.16
16331;BME280;8275;48.206;16.340;2023-04-22T08:23:25;98974.34;;;23.37;31.00
16331;BME280;8275;48.206;16.340;2023-04-22T08:25:54;98980.28;;;23.47;30.96
16331;BME280;8275;48.206;16.340;2023-04-22T08:28:22;98979.84;;;23.57;30.90
16331;BME280;8275;48.206;16.340;2023-04-22T08:30:51;98976.78;;;23.62;30.73
16331;BME280;8275;48.206;16.340;2023-04-22T08:33:20;98981.81;;;23.69;30.70
16331;BME280;8275;48.206;16.340;2023-04-22T08:35:52;98982.50;;;23.78;30.70
16331;BME280;8275;48.206;16.340;2023-04-22T08:38:20;98984.81;;;23.88;30.60
16331;BME280;8275;48.206;16.340;2023-04-22T08:40:49;98979.91;;;23.97;30.51
16331;BME280;8275;48.206;16.340;2023-04-22T08:43:17;98983.09;;;24.08;30.54
16331;BME280;8275;48.206;16.340;2023-04-22T08:45:46;98979.47;;;24.19;30.49
16331;BME280;8275;48.206;16.340;2023-04-22T08:48:17;98973.34;;;24.29;30.28
16331;BME280;8275;48.206;16.340;2023-04-22T08:50:48;98977.19;;;24.37;30.16
16331;BME280;8275;48.206;16.340;2023-04-22T08:53:17;98964.56;;;24.43;30.13
16331;BME280;8275;48.206;16.340;2023-04-22T08:55:46;98967.94;;;24.49;29.74
16331;BME280;8275;48.206;16.340;2023-04-22T08:58:16;98970.59;;;24.57;29.71
16331;BME280;8275;48.206;16.340;2023-04-22T09:00:46;98962.31;;;24.61;29.74
16331;BME280;8275;48.206;16.340;2023-04-22T09:03:15;98962.84;;;24.66;29.66
16331;BME280;8275;48.206;16.340;2023-04-22T09:05:46;98958.53;;;24.69;29.84
16331;BME280;8275;48.206;16.340;2023-04-22T09:08:18;98958.06;;;24.79;29.52
16331;BME280;8275;48.206;16.340;2023-04-22T09:10:46;98951.84;;;24.85;29.56
16331;BME280;8275;48.206;16.340;2023-04-22T09:13:16;98958.34;;;24.89;29.70
16331;BME280;8275;48.206;16.340;2023-04-22T09:15:44;98944.78;;;24.91;29.50
16331;BME280;8275;48.206;16.340;2023-04-22T09:18:16;98953.75;;;24.97;29.49
16331;BME280;8275;48.206;16.340;2023-04-22T09:20:47;98958.66;;;25.00;29.53
16331;BME280;8275;48.206;16.340;2023-04-22T09:23:16;98948.72;;;25.02;29.52
16331;BME280;8275;48.206;16.340;2023-04-22T09:25:45;98943.44;;;25.01;29.41
16331;BME280;8275;48.206;16.340;2023-04-22T09:28:17;98948.22;;;25.00;29.20
16331;BME280;8275;48.206;16.340;2023-04-22T09:30:46;98938.66;;;25.01;29.17
16331;BME280;8275;48.206;16.340;2023-04-22T09:33:14;98948.34;;;25.04;29.07
16331;BME280;8275;48.206;16.340;2023-04-22T09:35:43;98952.75;;;25.05;29.29
16331;BME280;8275;48.206;16.340;2023-04-22T09:38:13;98939.22;;;25.07;29.15
16331;BME280;8275;48.206;16.340;2023-04-22T09:40:43;98931.25;;;25.09;29.14
16331;BME280;8275;48.206;16.340;2023-04-22T09:43:17;98935.06;;;25.17;28.88
16331;BME280;8275;48.206;16.340;2023-04-22T09:45:46;98935.25;;;25.24;28.80
16331;BME280;8275;48.206;16.340;2023-04-22T09:48:17;98929.19;;;25.22;29.17
16331;BME280;8275;48.206;16.340;2023-04-22T09:50:48;98924.84;;;25.24;29.25
16331;BME280;8275;48.206;16.340;2023-04-22T09:53:20;98931.00;;;25.30;28.84
16331;BME280;8275;48.206;16.340;2023-04-22T09:55:52;98925.94;;;25.35;29.18
16331;BME280;8275;48.206;16.340;2023-04-22T09:58:21;98927.19;;;25.38;28.84
16331;BME280;8275;48.206;16.340;2023-04-22T10:00:54;98924.84;;;25.40;28.57
16331;BME280;8275;48.206;16.340;2023-04-22T10:03:23;98917.25;;;25.40;28.57
16331;BME280;8275;48.206;16.340;2023-04-22T10:05:52;98905.59;;;25.38;28.57
16331;BME280;8275;48.206;16.340;2023-04-22T10:08:21;98909.28;;;25.42;28.68
16331;BME280;8275;48.206;16.340;2023-04-22T10:10:50;98917.00;;;25.45;28.70
16331;BME280;8275;48.206;16.340;2023-04-22T10:13:19;98917.44;;;25.47;28.09
16331;BME280;8275;48.206;16.340;2023-04-22T10:15:51;98905.06;;;25.48;28.34
16331;BME280;8275;48.206;16.340;2023-04-22T10:18:24;98903.22;;;25.56;28.25
16331;BME280;8275;48.206;16.340;2023-04-22T10:20:55;98899.44;;;25.64;27.78
16331;BME280;8275;48.206;16.340;2023-04-22T10:23:31;98892.28;;;25.66;27.60
16331;BME280;8275;48.206;16.340;2023-04-22T10:26:00;98889.19;;;25.71;27.96
16331;BME280;8275;48.206;16.340;2023-04-22T10:28:32;98896.53;;;25.76;27.75
16331;BME280;8275;48.206;16.340;2023-04-22T10:31:05;98891.69;;;25.76;27.28
16331;BME280;8275;48.206;16.340;2023-04-22T10:33:37;98897.03;;;25.82;27.30
16331;BME280;8275;48.206;16.340;2023-04-22T10:36:09;98883.16;;;25.89;27.18
16331;BME280;8275;48.206;16.340;2023-04-22T10:38:44;98884.16;;;25.96;27.18
16331;BME280;8275;48.206;16.340;2023-04-22T10:41:32;98872.38;;;26.25;26.91
16331;BME280;8275;48.206;16.340;2023-04-22T10:44:05;98872.41;;;26.67;27.21
16331;BME280;8275;48.206;16.340;2023-04-22T10:46:59;98879.88;;;27.21;27.18
16331;BME280;8275;48.206;16.340;2023-04-22T10:49:31;98873.56;;;27.76;26.57
16331;BME280;8275;48.206;16.340;2023-04-22T10:52:01;98877.47;;;28.24;25.67
16331;BME280;8275;48.206;16.340;2023-04-22T10:55:00;98850.53;;;28.60;25.70
16331;BME280;8275;48.206;16.340;2023-04-22T10:57:40;98865.34;;;28.86;25.28
16331;BME280;8275;48.206;16.340;2023-04-22T11:00:31;98854.31;;;29.11;24.92
16331;BME280;8275;48.206;16.340;2023-04-22T11:03:26;98856.63;;;29.42;24.49
16331;BME280;8275;48.206;16.340;2023-04-22T11:06:16;98850.34;;;29.66;24.46
16331;BME280;8275;48.206;16.340;2023-04-22T11:08:46;98841.97;;;29.77;23.76
16331;BME280;8275;48.206;16.340;2023-04-22T11:11:17;98845.91;;;29.65;23.56
16331;BME280;8275;48.206;16.340;2023-04-22T11:13:47;98853.94;;;29.63;23.53
16331;BME280;8275;48.206;16.340;2023-04-22T11:16:20;98846.47;;;29.85;23.31
16331;BME280;8275;48.206;16.340;2023-04-22T11:18:49;98850.22;;;30.10;22.91
16331;BME280;8275;48.206;16.340;2023-04-22T11:21:19;98843.94;;;30.48;22.72
16331;BME280;8275;48.206;16.340;2023-04-22T11:23:49;98829.19;;;31.01;22.55
16331;BME280;8275;48.206;16.340;2023-04-22T11:26:32;98828.34;;;31.64;22.16
16331;BME280;8275;48.206;16.340;2023-04-22T11:29:02;98820.13;;;32.19;21.35
16331;BME280;8275;48.206;16.340;2023-04-22T11:31:30;98831.28;;;32.72;21.39
16331;BME280;8275;48.206;16.340;2023-04-22T11:33:59;98821.22;;;33.18;20.32
16331;BME280;8275;48.206;16.340;2023-04-22T11:36:28;98825.31;;;33.65;20.47
16331;BME280;8275;48.206;16.340;2023-04-22T11:38:57;98814.50;;;34.24;20.03
16331;BME280;8275;48.206;16.340;2023-04-22T11:41:28;98814.19;;;34.79;19.21
16331;BME280;8275;48.206;16.340;2023-04-22T11:43:59;98812.75;;;35.21;18.90
16331;BME280;8275;48.206;16.340;2023-04-22T11:46:29;98819.97;;;35.52;18.36
16331;BME280;8275;48.206;16.340;2023-04-22T11:49:12;98821.06;;;35.81;18.33
16331;BME280;8275;48.206;16.340;2023-04-22T11:51:54;98819.75;;;36.09;17.87
16331;BME280;8275;48.206;16.340;2023-04-22T11:54:31;98818.19;;;36.24;17.14
16331;BME280;8275;48.206;16.340;2023-04-22T11:57:03;98811.84;;;36.56;16.91
16331;BME280;8275;48.206;16.340;2023-04-22T11:59:32;98819.44;;;36.98;16.83
16331;BME280;8275;48.206;16.340;2023-04-22T12:02:04;98806.31;;;37.37;15.94
16331;BME280;8275;48.206;16.340;2023-04-22T12:04:37;98797.03;;;37.77;15.62
16331;BME280;8275;48.206;16.340;2023-04-22T12:07:06;98798.16;;;38.25;15.46
16331;BME280;8275;48.206;16.340;2023-04-22T12:09:34;98798.03;;;38.57;15.12
16331;BME280;8275;48.206;16.340;2023-04-22T12:12:05;98804.41;;;38.90;15.13
16331;BME280;8275;48.206;16.340;2023-04-22T12:14:34;98793.72;;;39.28;14.83
16331;BME280;8275;48.206;16.340;2023-04-22T12:17:03;98800.13;;;39.57;14.77
16331;BME280;8275;48.206;16.340;2023-04-22T12:19:32;98791.25;;;39.77;13.79
16331;BME280;8275;48.206;16.340;2023-04-22T12:22:00;98788.88;;;39.97;13.49
16331;BME280;8275;48.206;16.340;2023-04-22T12:24:29;98794.25;;;40.08;13.59
16331;BME280;8275;48.206;16.340;2023-04-22T12:26:58;98792.03;;;40.12;13.60
16331;BME280;8275;48.206;16.340;2023-04-22T12:29:31;98789.91;;;40.25;13.48
16331;BME280;8275;48.206;16.340;2023-04-22T12:31:59;98786.03;;;40.40;13.23
16331;BME280;8275;48.206;16.340;2023-04-22T12:34:28;98798.59;;;40.12;12.93
16331;BME280;8275;48.206;16.340;2023-04-22T12:36:57;98786.13;;;39.47;13.21
16331;BME280;8275;48.206;16.340;2023-04-22T12:39:26;98798.59;;;39.18;13.33
16331;BME280;8275;48.206;16.340;2023-04-22T12:41:55;98790.31;;;39.20;12.97
16331;BME280;8275;48.206;16.340;2023-04-22T12:44:33;98776.84;;;39.55;13.34
16331;BME280;8275;48.206;16.340;2023-04-22T12:47:03;98780.16;;;39.66;12.88
16331;BME280;8275;48.206;16.340;2023-04-22T12:49:31;98773.47;;;39.22;13.24
16331;BME280;8275;48.206;16.340;2023-04-22T12:52:00;98780.44;;;38.96;13.23
16331;BME280;8275;48.206;16.340;2023-04-22T12:54:28;98772.28;;;39.07;12.81
16331;BME280;8275;48.206;16.340;2023-04-22T12:56:57;98771.25;;;39.39;13.26
16331;BME280;8275;48.206;16.340;2023-04-22T12:59:25;98772.44;;;39.76;13.11
16331;BME280;8275;48.206;16.340;2023-04-22T13:01:55;98769.81;;;40.25;12.49
16331;BME280;8275;48.206;16.340;2023-04-22T13:04:24;98761.06;;;40.81;12.21
16331;BME280;8275;48.206;16.340;2023-04-22T13:06:52;98753.00;;;41.37;11.99
16331;BME280;8275;48.206;16.340;2023-04-22T13:09:23;98758.31;;;41.75;11.65
16331;BME280;8275;48.206;16.340;2023-04-22T13:11:52;98751.59;;;42.23;11.31
16331;BME280;8275;48.206;16.340;2023-04-22T13:14:20;98743.72;;;42.51;11.21